Time;durP1;ratioP1;P1;durP2;ratioP2;P2;SDS_P1;SDS_P2;PMS_P1;PMS_P2;Temp;Humidity;BMP_temperature;BMP_pressure;BME280_temperature;BME280_humidity;BME280_pressure;Samples;Min_cycle;Max_cycle;Signal;HPM_P1;HPM_P2
2023/01/29 00:00:32;;;;;;;21.73;14.17;;;3.00;99.90;;;;;;5086865;27;20585;-48
2023/01/29 00:02:59;;;;;;;20.83;14.03;;;3.00;99.90;;;;;;5096914;27;20190;-50
2023/01/29 00:05:28;;;;;;;22.83;14.13;;;3.00;99.90;;;;;;5100705;27;20225;-48
2023/01/29 00:07:55;;;;;;;24.47;14.93;;;3.00;99.90;;;;;;5103168;27;20185;-48
2023/01/29 00:10:21;;;;;;;20.37;13.40;;;3.10;99.90;;;;;;5106629;27;20224;-51
2023/01/29 00:12:50;;;;;;;21.20;13.80;;;3.10;99.90;;;;;;5102446;27;20549;-52
2023/01/29 00:15:17;;;;;;;20.50;12.77;;;3.00;99.90;;;;;;5100573;27;20304;-49
2023/01/29 00:17:44;;;;;;;22.90;13.43;;;3.10;99.90;;;;;;5087135;27;20193;-52
2023/01/29 00:20:11;;;;;;;17.80;12.50;;;3.10;99.90;;;;;;5114173;27;20273;-50
2023/01/29 00:22:39;;;;;;;22.73;14.60;;;3.10;99.90;;;;;;5105462;28;20197;-53
2023/01/29 00:25:07;;;;;;;20.47;13.20;;;3.10;99.90;;;;;;5104332;27;20220;-52
2023/01/29 00:27:34;;;;;;;20.97;13.17;;;3.10;99.90;;;;;;5106616;27;20561;-55
2023/01/29 00:30:10;;;;;;;16.43;11.53;;;3.10;99.90;;;;;;5095096;27;20323;-52
2023/01/29 00:32:37;;;;;;;17.83;11.80;;;3.10;99.90;;;;;;5087593;27;20286;-51
2023/01/29 00:35:06;;;;;;;21.43;12.83;;;3.10;99.90;;;;;;5110082;27;20215;-50
2023/01/29 00:37:33;;;;;;;20.10;11.83;;;3.10;99.90;;;;;;5125879;27;20200;-52
2023/01/29 00:40:01;;;;;;;20.03;12.20;;;3.10;99.90;;;;;;5091455;27;20196;-51
2023/01/29 00:45:12;;;;;;;21.27;12.40;;;3.10;99.90;;;;;;5101784;27;20209;-54
2023/01/29 00:47:39;;;;;;;16.50;11.90;;;3.10;99.90;;;;;;5094164;27;20194;-52
2023/01/29 00:50:09;;;;;;;18.50;12.10;;;3.10;99.90;;;;;;5100974;27;20209;-54
2023/01/29 00:52:36;;;;;;;21.80;12.93;;;3.10;99.90;;;;;;5093097;27;20194;-53
2023/01/29 00:55:06;;;;;;;20.23;12.10;;;3.10;99.90;;;;;;5098997;27;20928;-51
2023/01/29 00:57:34;;;;;;;17.33;10.53;;;3.10;99.90;;;;;;5104944;28;20205;-52
2023/01/29 01:00:02;;;;;;;16.30;11.23;;;3.20;99.90;;;;;;5095968;27;20950;-51
2023/01/29 01:05:17;;;;;;;18.60;11.33;;;3.20;99.90;;;;;;5110194;27;20576;-48
2023/01/29 01:07:45;;;;;;;18.23;10.70;;;3.20;99.90;;;;;;5118776;27;20606;-53
2023/01/29 01:10:21;;;;;;;17.00;10.40;;;3.20;99.90;;;;;;5102712;27;21052;-51
2023/01/29 01:12:50;;;;;;;17.27;11.70;;;3.20;99.90;;;;;;5099210;27;20189;-53
2023/01/29 01:15:18;;;;;;;19.80;10.80;;;3.20;99.90;;;;;;5102831;27;20212;-50
2023/01/29 01:17:45;;;;;;;19.77;11.77;;;3.20;99.90;;;;;;5085157;27;20197;-54
2023/01/29 01:20:12;;;;;;;20.77;10.60;;;3.30;99.90;;;;;;5097488;27;20875;-51
2023/01/29 01:22:40;;;;;;;15.57;9.67;;;3.20;99.90;;;;;;5106470;27;20201;-53
2023/01/29 01:25:07;;;;;;;15.30;10.60;;;3.30;99.90;;;;;;5103356;27;20220;-52
2023/01/29 01:27:39;;;;;;;18.60;11.03;;;3.30;99.90;;;;;;5103900;27;20684;-51
2023/01/29 01:30:08;;;;;;;17.53;10.63;;;3.30;99.90;;;;;;5102046;27;20209;-53
2023/01/29 01:32:35;;;;;;;16.93;10.27;;;3.30;99.90;;;;;;5097761;27;20204;-52
2023/01/29 01:35:02;;;;;;;17.30;10.33;;;3.30;99.90;;;;;;5097930;27;20295;-49
2023/01/29 01:37:30;;;;;;;18.43;10.63;;;3.30;99.90;;;;;;5121373;27;20778;-51
2023/01/29 01:39:57;;;;;;;18.23;10.80;;;3.30;99.90;;;;;;5121181;27;20242;-52
2023/01/29 01:42:29;;;;;;;19.20;10.77;;;3.30;99.90;;;;;;5123414;27;20586;-51
2023/01/29 01:45:04;;;;;;;16.93;10.63;;;3.30;99.90;;;;;;5120464;27;20956;-52
2023/01/29 01:47:35;;;;;;;17.70;10.73;;;3.30;99.90;;;;;;5124729;27;20728;-49
2023/01/29 01:50:07;;;;;;;19.23;11.27;;;3.30;99.90;;;;;;5090934;27;20219;-49
2023/01/29 01:52:40;;;;;;;21.17;11.67;;;3.30;99.90;;;;;;5103227;27;20200;-49
2023/01/29 01:55:09;;;;;;;15.70;10.40;;;3.30;99.90;;;;;;5122401;27;20811;-50
2023/01/29 01:57:36;;;;;;;17.50;10.40;;;3.30;99.90;;;;;;5122859;27;20684;-52
2023/01/29 02:00:09;;;;;;;15.93;10.23;;;3.30;99.90;;;;;;5119330;27;20288;-49
2023/01/29 02:11:06;;;;;;;18.53;10.33;;;3.30;99.90;;;;;;5119684;27;20220;-51
2023/01/29 02:13:33;;;;;;;14.47;10.57;;;3.30;99.90;;;;;;5118971;27;20220;-53
2023/01/29 02:16:01;;;;;;;18.23;10.27;;;3.40;99.90;;;;;;5091212;28;20185;-50
2023/01/29 02:18:28;;;;;;;19.37;11.60;;;3.40;99.90;;;;;;5102922;28;20201;-50
2023/01/29 02:21:14;;;;;;;18.30;10.20;;;3.40;99.90;;;;;;5086303;27;20207;-52
2023/01/29 02:24:15;;;;;;;15.50;9.83;;;3.40;99.90;;;;;;5089347;28;20680;-53
2023/01/29 02:26:55;;;;;;;14.83;10.37;;;3.40;99.90;;;;;;5101556;28;20209;-53
2023/01/29 02:29:34;;;;;;;15.87;10.10;;;3.40;99.90;;;;;;5104450;28;20197;-50
2023/01/29 02:32:16;;;;;;;16.77;9.83;;;3.40;99.90;;;;;;5100592;28;21106;-53
2023/01/29 02:37:39;;;;;;;16.63;10.00;;;3.40;99.90;;;;;;5111681;27;20197;-53
2023/01/29 02:40:17;;;;;;;17.60;10.27;;;3.40;99.90;;;;;;5093964;28;20181;-51
2023/01/29 02:42:52;;;;;;;13.83;9.40;;;3.40;99.90;;;;;;5100900;27;20284;-53
2023/01/29 02:45:30;;;;;;;15.67;10.17;;;3.40;99.90;;;;;;5104071;28;20213;-48
2023/01/29 02:48:00;;;;;;;15.47;10.00;;;3.40;99.90;;;;;;5100249;28;20857;-48
2023/01/29 02:50:32;;;;;;;17.70;10.30;;;3.40;99.90;;;;;;5086620;28;20583;-49
2023/01/29 02:53:04;;;;;;;16.60;8.87;;;3.40;99.90;;;;;;5111855;28;20220;-52
2023/01/29 02:55:37;;;;;;;16.17;9.70;;;3.40;99.90;;;;;;5123751;27;20329;-50
2023/01/29 02:58:11;;;;;;;17.30;10.20;;;3.40;99.90;;;;;;5120675;27;20201;-49
2023/01/29 03:00:43;;;;;;;15.37;9.87;;;3.40;99.90;;;;;;5095800;28;20285;-53
2023/01/29 03:03:14;;;;;;;16.43;9.63;;;3.40;99.90;;;;;;5100719;28;20835;-50
2023/01/29 03:05:49;;;;;;;14.03;10.00;;;3.50;99.90;;;;;;5095024;28;20217;-50
2023/01/29 03:08:22;;;;;;;18.07;11.00;;;3.50;99.90;;;;;;5105783;28;20271;-51
2023/01/29 03:10:53;;;;;;;14.07;9.83;;;3.50;99.90;;;;;;5093549;28;20248;-52
2023/01/29 03:13:26;;;;;;;17.97;10.00;;;3.50;99.90;;;;;;5103080;28;20892;-50
2023/01/29 03:16:00;;;;;;;13.47;8.70;;;3.50;99.90;;;;;;5109132;27;20769;-53
2023/01/29 03:18:44;;;;;;;13.63;8.20;;;3.50;99.90;;;;;;5125979;27;20200;-52
2023/01/29 03:32:50;;;;;;;15.80;8.57;;;3.50;99.90;;;;;;5103567;27;20277;-52
2023/01/29 03:35:35;;;;;;;12.03;8.93;;;3.60;99.90;;;;;;5101323;27;20225;-49
2023/01/29 03:38:04;;;;;;;13.57;8.40;;;3.50;99.90;;;;;;5088114;27;20204;-51
2023/01/29 03:40:37;;;;;;;13.67;9.30;;;3.60;99.90;;;;;;5124928;27;20291;-50
2023/01/29 03:43:11;;;;;;;13.70;8.53;;;3.60;99.90;;;;;;5122845;27;20223;-49
2023/01/29 03:45:46;;;;;;;12.07;8.60;;;3.50;99.90;;;;;;5110632;27;20305;-53
2023/01/29 03:48:23;;;;;;;16.43;9.67;;;3.60;99.90;;;;;;5097037;27;20236;-50
2023/01/29 03:50:58;;;;;;;14.47;8.93;;;3.60;99.90;;;;;;5102366;27;20220;-54
2023/01/29 03:53:30;;;;;;;11.83;8.57;;;3.60;99.90;;;;;;5088895;27;20216;-51
2023/01/29 03:56:02;;;;;;;12.07;8.70;;;3.60;99.90;;;;;;5106538;27;20951;-51
2023/01/29 03:58:37;;;;;;;11.03;8.63;;;3.60;99.90;;;;;;5105081;27;20205;-50
2023/01/29 04:01:11;;;;;;;13.97;9.10;;;3.60;99.90;;;;;;5103520;27;20852;-51
2023/01/29 04:03:43;;;;;;;16.60;9.03;;;3.60;99.90;;;;;;5104132;27;20292;-52
2023/01/29 04:06:16;;;;;;;13.17;8.53;;;3.60;99.90;;;;;;5095075;27;20813;-53
2023/01/29 04:09:01;;;;;;;10.93;7.60;;;3.60;99.90;;;;;;5083104;27;20267;-53
2023/01/29 04:11:29;;;;;;;9.03;7.50;;;3.60;99.90;;;;;;5108543;27;20301;-54
2023/01/29 04:13:56;;;;;;;9.83;7.53;;;3.60;99.90;;;;;;5104144;27;20205;-54
2023/01/29 04:16:27;;;;;;;11.73;8.87;;;3.60;99.90;;;;;;5105567;27;20291;-53
2023/01/29 04:19:13;;;;;;;14.30;8.33;;;3.60;99.90;;;;;;5107890;27;20189;-53
2023/01/29 04:21:43;;;;;;;11.67;8.73;;;3.60;99.90;;;;;;5117933;27;20240;-50
2023/01/29 04:24:13;;;;;;;9.53;7.33;;;3.60;99.90;;;;;;5096968;27;20217;-51
2023/01/29 04:26:57;;;;;;;11.83;7.57;;;3.60;99.90;;;;;;5088092;27;20205;-53
2023/01/29 04:29:39;;;;;;;10.13;7.33;;;3.60;99.90;;;;;;5121906;27;20204;-50
2023/01/29 04:32:15;;;;;;;11.97;8.27;;;3.60;99.90;;;;;;5123261;27;20795;-53
2023/01/29 04:34:57;;;;;;;13.90;8.83;;;3.60;99.90;;;;;;5122347;27;20227;-53
2023/01/29 04:37:36;;;;;;;10.73;8.27;;;3.60;99.90;;;;;;5124772;27;20200;-49
2023/01/29 04:40:13;;;;;;;11.20;8.50;;;3.60;99.90;;;;;;5100482;27;20221;-49
2023/01/29 04:42:47;;;;;;;12.90;8.40;;;3.60;99.90;;;;;;5110527;27;20200;-54
2023/01/29 04:45:21;;;;;;;14.57;8.37;;;3.60;99.90;;;;;;5125305;27;20582;-51
2023/01/29 04:47:53;;;;;;;10.67;8.20;;;3.60;99.90;;;;;;5122667;27;20196;-53
2023/01/29 04:50:28;;;;;;;14.97;8.70;;;3.60;99.90;;;;;;5093861;27;20193;-50
2023/01/29 04:53:02;;;;;;;12.07;8.37;;;3.60;99.90;;;;;;5095542;27;20262;-52
2023/01/29 04:55:35;;;;;;;13.83;8.53;;;3.60;99.90;;;;;;5088184;27;20213;-50
2023/01/29 04:58:09;;;;;;;11.23;8.40;;;3.60;99.90;;;;;;5115914;27;20783;-52
2023/01/29 05:00:40;;;;;;;14.27;9.57;;;3.60;99.90;;;;;;5107490;27;20276;-53
2023/01/29 05:03:10;;;;;;;11.47;8.47;;;3.60;99.90;;;;;;5096645;27;20185;-52
2023/01/29 05:05:41;;;;;;;11.57;8.03;;;3.60;99.90;;;;;;5104896;27;20278;-52
2023/01/29 05:08:11;;;;;;;9.90;7.47;;;3.60;99.90;;;;;;5103983;27;20268;-52
2023/01/29 05:10:39;;;;;;;10.37;8.07;;;3.50;99.90;;;;;;5085966;27;20607;-50
2023/01/29 05:13:10;;;;;;;10.33;7.90;;;3.50;99.90;;;;;;5109684;27;20184;-53
2023/01/29 05:15:39;;;;;;;10.50;7.40;;;3.50;99.90;;;;;;5110589;27;20242;-50
2023/01/29 05:18:07;;;;;;;12.40;8.63;;;3.50;99.90;;;;;;5094329;27;21018;-52
2023/01/29 05:20:38;;;;;;;11.70;8.57;;;3.40;99.90;;;;;;5105463;27;20193;-53
2023/01/29 05:23:09;;;;;;;11.43;8.40;;;3.40;99.90;;;;;;5102917;27;20193;-53
2023/01/29 05:25:36;;;;;;;13.03;8.40;;;3.40;99.90;;;;;;5100292;27;20224;-53
2023/01/29 05:28:03;;;;;;;11.53;8.60;;;3.40;99.90;;;;;;5093048;27;20192;-51
2023/01/29 05:30:30;;;;;;;11.00;8.23;;;3.40;99.90;;;;;;5112859;27;20197;-49
2023/01/29 05:32:58;;;;;;;13.23;8.57;;;3.40;99.90;;;;;;5099678;27;20241;-51
2023/01/29 05:35:24;;;;;;;12.37;8.70;;;3.40;99.90;;;;;;5105276;27;20699;-50
2023/01/29 05:37:53;;;;;;;12.70;8.17;;;3.40;99.90;;;;;;5101587;27;20197;-54
2023/01/29 05:40:20;;;;;;;12.97;8.50;;;3.40;99.90;;;;;;5110816;27;20204;-49
2023/01/29 05:42:47;;;;;;;10.93;8.17;;;3.40;99.90;;;;;;5091667;27;20189;-51
2023/01/29 05:45:13;;;;;;;12.00;8.60;;;3.40;99.90;;;;;;5108283;27;20221;-51
2023/01/29 05:47:40;;;;;;;13.30;9.53;;;3.30;99.90;;;;;;5095794;28;20222;-52
2023/01/29 05:50:08;;;;;;;12.27;8.47;;;3.40;99.90;;;;;;5104505;28;20652;-50
2023/01/29 05:52:35;;;;;;;13.07;8.47;;;3.30;99.90;;;;;;5101769;27;20209;-52
2023/01/29 05:55:05;;;;;;;13.07;9.40;;;3.30;99.90;;;;;;5103944;27;20217;-52
2023/01/29 05:57:32;;;;;;;11.53;8.27;;;3.30;99.90;;;;;;5097111;27;20246;-54
2023/01/29 05:59:58;;;;;;;13.17;9.20;;;3.30;99.90;;;;;;5103408;27;20180;-50
2023/01/29 06:02:25;;;;;;;13.73;8.47;;;3.30;99.90;;;;;;5098749;27;20197;-53
2023/01/29 06:04:52;;;;;;;13.33;8.97;;;3.30;99.90;;;;;;5102166;27;20218;-50
2023/01/29 06:07:19;;;;;;;13.80;9.73;;;3.30;99.90;;;;;;5099592;28;20554;-50
2023/01/29 06:09:45;;;;;;;16.80;9.33;;;3.30;99.90;;;;;;5117892;27;20184;-53
2023/01/29 06:12:13;;;;;;;13.60;9.03;;;3.30;99.90;;;;;;5093742;28;20217;-48
2023/01/29 06:14:40;;;;;;;11.90;8.33;;;3.30;99.90;;;;;;5086538;27;20221;-54
2023/01/29 06:17:30;;;;;;;16.00;9.00;;;3.30;99.90;;;;;;5101213;27;20221;-52
2023/01/29 06:19:56;;;;;;;16.33;9.77;;;3.30;99.90;;;;;;5102373;28;20189;-53
2023/01/29 06:22:23;;;;;;;14.77;9.40;;;3.20;99.90;;;;;;5100363;27;20200;-51
2023/01/29 06:24:50;;;;;;;13.60;9.03;;;3.20;99.90;;;;;;5120499;27;20208;-50
2023/01/29 06:27:18;;;;;;;16.07;9.60;;;3.30;99.90;;;;;;5109561;27;20210;-50
2023/01/29 06:29:44;;;;;;;16.63;10.13;;;3.30;99.90;;;;;;5092797;27;20196;-52
2023/01/29 06:32:12;;;;;;;17.30;10.00;;;3.30;99.90;;;;;;5119762;27;20209;-49
2023/01/29 06:34:38;;;;;;;15.67;9.77;;;3.20;99.90;;;;;;5107313;27;20208;-52
2023/01/29 06:37:06;;;;;;;14.13;9.53;;;3.20;99.90;;;;;;5123776;27;20220;-53
2023/01/29 06:39:35;;;;;;;17.30;11.10;;;3.20;99.90;;;;;;5111389;27;20273;-52
2023/01/29 06:42:02;;;;;;;14.87;10.13;;;3.20;99.90;;;;;;5116658;27;20239;-49
2023/01/29 06:44:29;;;;;;;16.53;9.23;;;3.20;99.90;;;;;;5109591;27;20221;-51
2023/01/29 06:46:56;;;;;;;16.33;10.10;;;3.20;99.90;;;;;;5101313;28;20186;-51
2023/01/29 06:49:23;;;;;;;18.87;9.33;;;3.20;99.90;;;;;;5099498;27;20209;-53
2023/01/29 06:51:49;;;;;;;16.97;9.90;;;3.20;99.90;;;;;;5115212;27;20220;-50
2023/01/29 06:54:16;;;;;;;16.73;10.10;;;3.20;99.90;;;;;;5103902;28;20224;-50
2023/01/29 06:56:43;;;;;;;20.00;10.17;;;3.10;99.90;;;;;;5089432;28;20190;-54
2023/01/29 06:59:11;;;;;;;14.10;9.50;;;3.20;99.90;;;;;;5109012;28;20200;-53
2023/01/29 07:01:41;;;;;;;16.50;9.60;;;3.10;99.90;;;;;;5084197;27;20194;-51
2023/01/29 07:04:07;;;;;;;16.20;10.27;;;3.10;99.90;;;;;;5107218;27;20217;-51
2023/01/29 07:06:34;;;;;;;13.63;9.30;;;3.20;99.90;;;;;;5108978;28;20200;-52
2023/01/29 07:09:01;;;;;;;13.90;9.40;;;3.20;99.90;;;;;;5099573;28;20201;-50
2023/01/29 07:11:28;;;;;;;19.13;10.33;;;3.20;99.90;;;;;;5118048;27;20208;-52
2023/01/29 07:13:55;;;;;;;12.07;8.77;;;3.10;99.90;;;;;;5119613;27;20344;-51
2023/01/29 07:16:22;;;;;;;15.07;9.83;;;3.10;99.90;;;;;;5092966;28;20227;-52
2023/01/29 07:18:50;;;;;;;17.70;10.13;;;3.20;99.90;;;;;;5085016;28;20242;-53
2023/01/29 07:21:16;;;;;;;15.50;10.10;;;3.20;99.90;;;;;;5109603;27;20204;-49
2023/01/29 07:23:43;;;;;;;13.03;8.70;;;3.20;99.90;;;;;;5099775;28;20182;-50
2023/01/29 07:26:10;;;;;;;13.23;9.70;;;3.20;99.90;;;;;;5102020;27;20205;-50
2023/01/29 07:28:38;;;;;;;15.97;10.03;;;3.20;99.90;;;;;;5098964;27;20200;-54
2023/01/29 07:31:06;;;;;;;13.73;9.53;;;3.20;99.90;;;;;;5092061;28;20212;-54
2023/01/29 07:33:33;;;;;;;14.00;9.53;;;3.20;99.90;;;;;;5080000;28;20218;-54
2023/01/29 07:36:01;;;;;;;15.77;10.10;;;3.20;99.90;;;;;;5109700;28;20198;-52
2023/01/29 07:38:28;;;;;;;15.03;9.27;;;3.20;99.90;;;;;;5115205;27;20219;-52
2023/01/29 07:40:56;;;;;;;12.90;9.30;;;3.20;99.90;;;;;;5108272;27;20205;-49
2023/01/29 07:43:23;;;;;;;16.13;10.33;;;3.20;99.90;;;;;;5106164;28;20193;-51
2023/01/29 07:45:50;;;;;;;15.30;9.50;;;3.20;99.90;;;;;;5094216;28;20233;-53
2023/01/29 07:48:17;;;;;;;17.07;11.40;;;3.20;99.90;;;;;;5086114;27;20198;-54
2023/01/29 07:50:44;;;;;;;13.90;10.03;;;3.30;99.90;;;;;;5094498;28;20186;-55
2023/01/29 07:53:14;;;;;;;16.10;10.37;;;3.20;99.90;;;;;;5100035;28;20213;-54
2023/01/29 07:55:44;;;;;;;16.40;9.47;;;3.30;99.90;;;;;;5094522;28;20910;-52
2023/01/29 07:58:12;;;;;;;15.83;10.90;;;3.20;99.90;;;;;;5116182;27;20251;-54
2023/01/29 08:00:39;;;;;;;16.20;10.33;;;3.20;99.90;;;;;;5094663;27;20201;-54
2023/01/29 08:03:09;;;;;;;17.50;10.93;;;3.20;99.90;;;;;;5078972;27;20252;-55
2023/01/29 08:05:36;;;;;;;18.77;12.07;;;3.20;99.90;;;;;;5102947;27;20296;-53
2023/01/29 08:08:03;;;;;;;15.90;9.30;;;3.20;99.90;;;;;;5096297;28;20198;-55
2023/01/29 08:10:31;;;;;;;17.33;12.23;;;3.20;99.90;;;;;;5108801;27;20280;-54
2023/01/29 08:12:59;;;;;;;19.97;11.27;;;3.30;99.90;;;;;;5107337;27;20271;-52
2023/01/29 08:15:27;;;;;;;18.50;12.40;;;3.30;99.90;;;;;;5107497;27;20209;-53
2023/01/29 08:17:54;;;;;;;19.60;12.10;;;3.30;99.90;;;;;;5100779;27;20202;-52
2023/01/29 08:20:22;;;;;;;17.63;11.93;;;3.30;99.90;;;;;;5086504;27;20959;-49
2023/01/29 08:22:48;;;;;;;18.03;12.23;;;3.30;99.90;;;;;;5097184;27;20194;-48
2023/01/29 08:25:16;;;;;;;19.37;11.87;;;3.30;99.90;;;;;;5098378;28;20208;-53
2023/01/29 08:27:44;;;;;;;20.47;12.87;;;3.30;99.90;;;;;;5115008;27;20712;-49
2023/01/29 08:30:12;;;;;;;24.33;13.57;;;3.30;99.90;;;;;;5114107;27;20189;-53
2023/01/29 08:32:39;;;;;;;19.47;13.10;;;3.30;99.90;;;;;;5105494;27;20225;-49
2023/01/29 08:35:07;;;;;;;23.30;13.27;;;3.30;99.90;;;;;;5089208;27;20234;-52
2023/01/29 08:37:33;;;;;;;21.50;12.37;;;3.30;99.90;;;;;;5097656;27;20209;-50
2023/01/29 08:40:00;;;;;;;20.00;13.43;;;3.30;99.90;;;;;;5109228;27;20280;-53
2023/01/29 08:42:27;;;;;;;20.70;13.57;;;3.30;99.90;;;;;;5102702;27;20226;-48
2023/01/29 08:44:55;;;;;;;27.27;15.00;;;3.30;99.90;;;;;;5093960;27;20444;-52
2023/01/29 08:47:21;;;;;;;20.23;13.87;;;3.30;99.90;;;;;;5094259;27;20524;-51
2023/01/29 08:49:48;;;;;;;22.23;14.60;;;3.30;99.90;;;;;;5082683;27;20205;-52
2023/01/29 08:52:15;;;;;;;23.90;14.23;;;3.30;99.90;;;;;;5098879;27;20221;-52
2023/01/29 08:54:42;;;;;;;22.70;14.53;;;3.30;99.90;;;;;;5113416;27;20863;-50
2023/01/29 08:57:08;;;;;;;26.70;16.00;;;3.40;99.90;;;;;;5106619;27;20574;-52
2023/01/29 08:59:35;;;;;;;29.73;17.30;;;3.40;99.90;;;;;;5101552;27;20201;-52
2023/01/29 09:02:03;;;;;;;26.10;16.27;;;3.40;99.90;;;;;;5117220;27;20217;-53
2023/01/29 09:04:31;;;;;;;25.47;16.10;;;3.40;99.90;;;;;;5078455;27;20262;-54
2023/01/29 09:06:58;;;;;;;26.77;16.73;;;3.40;99.90;;;;;;5113877;27;20203;-53
2023/01/29 09:09:24;;;;;;;28.67;17.60;;;3.40;99.90;;;;;;5105633;27;20933;-53
2023/01/29 09:11:51;;;;;;;29.53;18.33;;;3.40;99.90;;;;;;5102244;27;20197;-49
2023/01/29 09:14:18;;;;;;;33.70;18.97;;;3.40;99.90;;;;;;5094421;27;20213;-52
2023/01/29 09:16:45;;;;;;;25.67;17.70;;;3.40;99.90;;;;;;5101384;27;20205;-51
2023/01/29 09:19:13;;;;;;;27.57;17.40;;;3.40;99.90;;;;;;5090356;27;20649;-52
2023/01/29 09:21:40;;;;;;;28.33;19.17;;;3.40;99.90;;;;;;5090187;27;20185;-54
2023/01/29 09:24:07;;;;;;;34.20;20.33;;;3.40;99.90;;;;;;5108153;27;20263;-53
2023/01/29 09:26:34;;;;;;;33.70;19.07;;;3.40;99.90;;;;;;5100445;27;20185;-52
2023/01/29 09:29:00;;;;;;;29.60;17.67;;;3.50;99.90;;;;;;5109214;27;20205;-54
2023/01/29 09:31:27;;;;;;;31.27;20.13;;;3.50;99.90;;;;;;5095373;27;20357;-50
2023/01/29 09:33:54;;;;;;;33.37;19.67;;;3.50;99.90;;;;;;5111455;27;20216;-53
2023/01/29 09:36:22;;;;;;;29.33;19.97;;;3.50;99.90;;;;;;5074380;27;20206;-50
2023/01/29 09:38:49;;;;;;;34.67;19.77;;;3.50;99.90;;;;;;5099243;27;20205;-53
2023/01/29 09:41:27;;;;;;;31.83;20.27;;;3.50;99.90;;;;;;5093950;27;20563;-54
2023/01/29 09:43:57;;;;;;;32.97;20.77;;;3.60;99.90;;;;;;5105359;27;20212;-52
2023/01/29 09:46:32;;;;;;;30.20;18.50;;;3.60;99.90;;;;;;5107931;27;20200;-52
2023/01/29 09:49:04;;;;;;;30.90;20.57;;;3.60;99.90;;;;;;5104626;27;20244;-48
2023/01/29 09:51:37;;;;;;;33.57;20.37;;;3.60;99.90;;;;;;5084290;28;20193;-52
2023/01/29 09:54:14;;;;;;;35.17;21.00;;;3.60;99.90;;;;;;5093148;27;20224;-50
2023/01/29 09:56:43;;;;;;;30.57;20.03;;;3.60;99.90;;;;;;5118887;27;20220;-48
2023/01/29 09:59:12;;;;;;;33.03;19.63;;;3.60;99.90;;;;;;5099531;28;20673;-54
2023/01/29 10:01:48;;;;;;;31.60;20.87;;;3.60;99.90;;;;;;5112961;27;20194;-52
2023/01/29 10:04:34;;;;;;;33.13;20.47;;;3.70;99.90;;;;;;5114270;27;20299;-53
2023/01/29 10:07:26;;;;;;;31.73;19.57;;;3.70;99.90;;;;;;5077499;27;20205;-51
2023/01/29 10:10:24;;;;;;;30.10;19.50;;;3.70;99.90;;;;;;5090966;27;20236;-50
2023/01/29 10:13:02;;;;;;;36.10;20.80;;;3.70;99.90;;;;;;5092325;28;20220;-53
2023/01/29 10:15:48;;;;;;;31.70;20.17;;;3.70;99.90;;;;;;5110521;27;20217;-52
2023/01/29 10:18:45;;;;;;;31.10;18.90;;;3.80;99.90;;;;;;5101396;27;20189;-52
2023/01/29 10:21:46;;;;;;;29.87;18.70;;;3.80;99.90;;;;;;5086591;27;20601;-53
2023/01/29 10:24:25;;;;;;;24.90;18.47;;;3.80;99.90;;;;;;5101787;27;20304;-55
2023/01/29 10:26:54;;;;;;;28.50;18.67;;;3.80;99.90;;;;;;5092650;27;20212;-54
2023/01/29 10:29:21;;;;;;;27.73;19.97;;;3.80;99.90;;;;;;5102552;27;20972;-55
2023/01/29 10:31:55;;;;;;;27.40;18.57;;;3.80;99.90;;;;;;5101839;27;20747;-52
2023/01/29 10:34:27;;;;;;;27.47;17.50;;;3.90;99.90;;;;;;5095059;28;20312;-56
2023/01/29 10:36:55;;;;;;;29.07;19.07;;;3.90;99.90;;;;;;5082342;28;22290;-51
2023/01/29 10:39:25;;;;;;;28.90;19.73;;;3.90;99.90;;;;;;5096955;27;20283;-51
2023/01/29 10:42:05;;;;;;;29.70;20.50;;;3.90;99.90;;;;;;5101115;27;20907;-53
2023/01/29 10:44:49;;;;;;;30.23;19.80;;;3.90;99.90;;;;;;5102067;27;20302;-54
2023/01/29 10:47:47;;;;;;;31.97;19.47;;;3.90;99.90;;;;;;5106386;27;20202;-52
2023/01/29 10:50:28;;;;;;;26.67;17.10;;;3.90;99.90;;;;;;5097411;28;20221;-51
2023/01/29 10:53:18;;;;;;;31.17;19.47;;;3.90;99.90;;;;;;5086488;27;20300;-54
2023/01/29 10:55:55;;;;;;;32.10;19.07;;;3.90;99.90;;;;;;5095481;28;20314;-51
2023/01/29 10:58:30;;;;;;;29.83;19.27;;;3.90;99.90;;;;;;5098404;28;20204;-52
2023/01/29 11:00:57;;;;;;;31.07;19.37;;;3.90;99.90;;;;;;5111478;28;20216;-53
2023/01/29 11:03:26;;;;;;;29.83;20.20;;;3.90;99.90;;;;;;5104678;28;20922;-53
2023/01/29 11:06:00;;;;;;;33.83;21.67;;;3.90;99.90;;;;;;5104207;28;20216;-52
2023/01/29 11:08:31;;;;;;;32.40;19.83;;;3.90;99.90;;;;;;5082946;27;20310;-49
2023/01/29 11:11:08;;;;;;;33.97;20.40;;;3.90;99.90;;;;;;5094626;28;20219;-53
2023/01/29 11:13:40;;;;;;;33.37;21.63;;;4.00;99.90;;;;;;5114127;28;20277;-54
2023/01/29 11:16:09;;;;;;;36.33;21.57;;;4.00;99.90;;;;;;5099678;28;20644;-54
2023/01/29 11:18:56;;;;;;;33.00;20.33;;;4.00;99.90;;;;;;5106132;28;20279;-54
2023/01/29 11:21:25;;;;;;;33.10;22.50;;;4.00;99.90;;;;;;5098596;28;20200;-53
2023/01/29 11:24:07;;;;;;;30.10;18.93;;;4.00;99.90;;;;;;5081153;28;20214;-53
2023/01/29 11:26:39;;;;;;;36.10;20.60;;;4.10;99.90;;;;;;5098566;28;20197;-50
2023/01/29 11:29:43;;;;;;;37.73;23.87;;;4.00;99.90;;;;;;5104511;27;20663;-54
2023/01/29 11:32:14;;;;;;;37.10;25.23;;;4.10;99.90;;;;;;5106992;28;20446;-55
2023/01/29 11:35:03;;;;;;;36.47;22.03;;;4.10;99.90;;;;;;5119784;27;20224;-52
2023/01/29 11:37:35;;;;;;;31.73;20.83;;;4.10;99.90;;;;;;5105482;27;20281;-52
2023/01/29 11:40:26;;;;;;;31.83;20.60;;;4.10;99.90;;;;;;5091450;27;20207;-52
2023/01/29 11:42:54;;;;;;;32.90;20.53;;;4.10;99.90;;;;;;5095131;27;20201;-53
2023/01/29 11:45:26;;;;;;;29.30;18.20;;;4.10;99.90;;;;;;5098642;27;20930;-53
2023/01/29 11:47:54;;;;;;;34.30;21.67;;;4.10;99.90;;;;;;5113835;27;20726;-53
2023/01/29 11:50:24;;;;;;;30.33;22.07;;;4.10;99.90;;;;;;5103874;27;20190;-53
2023/01/29 11:52:51;;;;;;;29.57;19.00;;;4.20;99.90;;;;;;5108059;27;20240;-55
2023/01/29 11:55:22;;;;;;;32.77;21.40;;;4.10;99.90;;;;;;5088898;27;20216;-54
2023/01/29 11:57:53;;;;;;;32.20;21.00;;;4.10;99.90;;;;;;5117560;27;20201;-51
2023/01/29 12:00:24;;;;;;;28.00;20.43;;;4.20;99.90;;;;;;5090140;27;20193;-54
2023/01/29 12:02:56;;;;;;;32.77;20.80;;;4.20;99.90;;;;;;5102815;27;20205;-52
2023/01/29 12:05:26;;;;;;;30.83;20.67;;;4.20;99.90;;;;;;5122162;27;20937;-53
2023/01/29 12:07:55;;;;;;;32.80;19.40;;;4.20;99.90;;;;;;5102207;27;20198;-54
2023/01/29 12:10:34;;;;;;;33.00;21.57;;;4.20;99.90;;;;;;5085982;27;20190;-56
2023/01/29 12:13:06;;;;;;;30.80;19.53;;;4.20;99.90;;;;;;5094722;28;20224;-52
2023/01/29 12:15:34;;;;;;;33.93;22.63;;;4.20;99.90;;;;;;5098430;27;20213;-53
2023/01/29 12:18:07;;;;;;;30.67;21.20;;;4.20;99.90;;;;;;5107479;27;20193;-53
2023/01/29 12:20:39;;;;;;;31.33;20.40;;;4.20;99.90;;;;;;5098741;27;20657;-52
2023/01/29 12:23:17;;;;;;;28.77;19.17;;;4.20;99.90;;;;;;5121060;27;20690;-51
2023/01/29 12:25:56;;;;;;;31.37;21.67;;;4.20;99.90;;;;;;5086718;27;20217;-53
2023/01/29 12:28:33;;;;;;;33.67;19.10;;;4.20;99.90;;;;;;5103087;27;20212;-52
2023/01/29 12:31:15;;;;;;;31.80;19.93;;;4.10;99.90;;;;;;5102762;27;20203;-55
2023/01/29 12:33:50;;;;;;;29.67;19.43;;;4.10;99.90;;;;;;5097074;27;20205;-54
2023/01/29 12:36:24;;;;;;;32.80;19.90;;;4.10;99.90;;;;;;5105450;27;21096;-53
2023/01/29 12:38:51;;;;;;;30.73;19.67;;;4.10;99.90;;;;;;5109378;27;20279;-52
2023/01/29 12:41:29;;;;;;;30.27;20.10;;;4.20;99.90;;;;;;5093967;27;20656;-53
2023/01/29 12:44:01;;;;;;;30.90;21.03;;;4.20;99.90;;;;;;5094539;27;20232;-51
2023/01/29 12:46:31;;;;;;;28.60;19.73;;;4.20;99.90;;;;;;5093569;27;20198;-53
2023/01/29 12:49:02;;;;;;;28.70;19.60;;;4.20;99.90;;;;;;5104671;27;20197;-52
2023/01/29 12:51:35;;;;;;;30.60;20.50;;;4.20;99.90;;;;;;5109526;27;20602;-52
2023/01/29 12:54:06;;;;;;;28.73;18.93;;;4.20;99.90;;;;;;5100573;27;20247;-53
2023/01/29 12:56:36;;;;;;;32.93;19.73;;;4.20;99.90;;;;;;5087287;27;20213;-53
2023/01/29 12:59:12;;;;;;;27.77;18.10;;;4.20;99.90;;;;;;5110077;27;20198;-54
2023/01/29 13:01:48;;;;;;;32.80;20.33;;;4.20;99.90;;;;;;5090628;27;20205;-52
2023/01/29 13:04:22;;;;;;;28.83;17.90;;;4.20;99.90;;;;;;5114490;27;20219;-52
2023/01/29 13:06:53;;;;;;;29.67;19.93;;;4.20;99.90;;;;;;5100337;27;20194;-51
2023/01/29 13:09:23;;;;;;;27.20;19.50;;;4.20;99.90;;;;;;5113462;27;20276;-52
2023/01/29 13:11:53;;;;;;;28.73;17.80;;;4.20;99.90;;;;;;5087711;27;20945;-56
2023/01/29 13:14:25;;;;;;;27.87;19.13;;;4.30;99.90;;;;;;5105862;27;20215;-53
2023/01/29 13:17:01;;;;;;;25.03;16.57;;;4.30;99.90;;;;;;5100032;27;20391;-51
2023/01/29 13:19:32;;;;;;;29.63;19.60;;;4.20;99.90;;;;;;5091717;27;20568;-54
2023/01/29 13:22:04;;;;;;;31.60;19.27;;;4.20;99.90;;;;;;5114759;27;20867;-53
2023/01/29 13:24:36;;;;;;;27.70;19.53;;;4.20;99.90;;;;;;5097758;27;20308;-49
2023/01/29 13:27:04;;;;;;;29.20;20.10;;;4.30;99.90;;;;;;5087006;27;20206;-52
2023/01/29 13:29:31;;;;;;;29.60;18.63;;;4.30;99.90;;;;;;5105227;27;20745;-53